.
WxDataArchive / Data Records for 2008-07-07
2008-07-06 July 2008 2008-07-08

Data Records for Monday, 07 July 2008

Time	Temp	Chill	HIndex	Humid	Dewpt	 Wind 	HiWind	WindDir	Rain 	Barom 
-----	----	-----	------	-----	-----	------	------	-------	-----	----- 
00:00	69.9	69.9	69.9	85	65.2	0	0	---	0.00	29.925 
00:05	69.8	69.8	69.8	85	65.1	0	0	---	0.00	29.921 
00:10	69.8	69.8	69.8	85	65.1	0	0	---	0.00	29.916 
00:15	69.8	69.8	69.8	85	65.1	0	0	---	0.00	29.920 
00:20	69.8	69.8	69.8	85	65.1	0	0	---	0.00	29.920 
00:25	69.6	69.6	69.6	86	65.2	0	0	---	0.00	29.922 
00:30	69.4	69.4	69.4	86	65.0	0	0	---	0.00	29.918 
00:35	69.4	69.4	69.4	86	65.0	0	0	---	0.00	29.921 
00:40	69.3	69.3	69.3	86	64.9	0	0	---	0.00	29.921 
00:45	69.1	69.1	69.1	87	65.1	0	0	---	0.00	29.916 
00:50	68.9	68.9	68.9	87	64.9	0	0	---	0.00	29.914 
00:55	68.8	68.8	68.8	87	64.8	0	0	---	0.00	29.914 
01:00	68.6	68.6	68.6	88	64.9	0	0	---	0.00	29.914 
01:05	68.6	68.6	68.6	88	64.9	0	0	---	0.00	29.916 
01:10	68.4	68.4	68.4	88	64.7	0	1	0	0.00	29.912 
01:15	68.3	68.3	68.3	89	64.9	0	0	---	0.00	29.911 
01:20	68.1	68.1	68.1	89	64.7	0	0	---	0.00	29.910 
01:25	67.9	67.9	67.9	89	64.5	0	0	---	0.00	29.908 
01:30	67.8	67.8	67.8	89	64.4	0	0	---	0.00	29.910 
01:35	67.6	67.6	67.6	90	64.6	0	0	---	0.00	29.912 
01:40	67.4	67.4	67.4	90	64.4	0	0	---	0.00	29.912 
01:45	67.3	67.3	67.3	90	64.3	0	0	---	0.00	29.909 
01:50	67.1	67.1	67.1	90	64.1	0	0	---	0.00	29.911 
01:55	66.9	66.9	66.9	90	63.9	0	0	---	0.00	29.911 
02:00	66.6	66.6	66.6	90	63.6	0	0	---	0.00	29.901 
02:05	66.4	66.4	66.4	91	63.7	0	0	---	0.00	29.907 
02:10	66.3	66.3	66.3	91	63.6	0	0	---	0.00	29.907 
02:15	66.1	66.1	66.1	91	63.4	0	0	---	0.00	29.901 
02:20	66.0	66.0	66.0	92	63.6	0	0	---	0.00	29.907 
02:25	65.8	65.8	65.8	92	63.4	0	0	---	0.00	29.912 
02:30	65.8	65.8	65.8	92	63.4	0	0	---	0.00	29.915 
02:35	65.6	65.6	65.6	92	63.2	0	0	---	0.00	29.915 
02:40	65.5	65.5	65.5	92	63.1	0	0	---	0.00	29.914 
02:45	65.5	65.5	65.5	93	63.4	0	0	---	0.00	29.909 
02:50	65.3	65.3	65.3	93	63.2	0	0	---	0.00	29.908 
02:55	65.3	65.3	65.3	93	63.2	0	0	---	0.00	29.908 
03:00	65.3	65.3	65.3	93	63.2	0	0	---	0.00	29.906 
03:05	65.3	65.3	65.3	93	63.2	0	0	---	0.00	29.904 
03:10	65.3	65.3	65.3	93	63.2	0	0	---	0.00	29.905 
03:15	65.3	65.3	65.3	93	63.2	0	0	---	0.00	29.904 
03:20	65.2	65.2	65.2	93	63.1	0	0	---	0.00	29.902 
03:25	65.2	65.2	65.2	94	63.4	0	0	---	0.00	29.903 
03:30	65.2	65.2	65.2	94	63.4	0	0	---	0.00	29.905 
03:35	65.0	65.0	65.0	94	63.2	0	0	---	0.00	29.908 
03:40	64.8	64.8	64.8	94	63.0	0	0	---	0.00	29.909 
03:45	64.7	64.7	64.7	94	62.9	0	0	---	0.00	29.910 
03:50	64.7	64.7	64.7	94	62.9	0	0	---	0.00	29.907 
03:55	64.7	64.7	64.7	94	62.9	0	0	---	0.00	29.902 
04:00	64.7	64.7	64.7	94	62.9	0	0	---	0.00	29.899 
04:05	64.5	64.5	64.5	94	62.7	0	0	---	0.00	29.895 
04:10	64.5	64.5	64.5	94	62.7	0	0	---	0.00	29.893 
04:15	64.5	64.5	64.5	94	62.7	0	0	---	0.00	29.893 
04:20	64.3	64.3	64.3	94	62.5	0	0	---	0.00	29.892 
04:25	64.2	64.2	64.2	94	62.4	0	0	---	0.00	29.891 
04:30	64.2	64.2	64.2	94	62.4	0	0	---	0.00	29.898 
04:35	64.0	64.0	64.0	95	62.5	0	0	---	0.00	29.895 
04:40	64.0	64.0	64.0	95	62.5	0	0	---	0.00	29.898 
04:45	64.0	64.0	64.0	95	62.5	0	0	---	0.00	29.900 
04:50	64.0	64.0	64.0	95	62.5	0	0	---	0.00	29.899 
04:55	64.0	64.0	64.0	95	62.5	0	0	---	0.00	29.900 
05:00	64.0	64.0	64.0	95	62.5	0	0	---	0.00	29.902 
05:05	64.0	64.0	64.0	95	62.5	0	0	---	0.00	29.905 
05:10	64.0	64.0	64.0	95	62.5	0	0	---	0.00	29.913 
05:15	63.9	63.9	63.9	95	62.4	0	0	---	0.00	29.915 
05:20	63.9	63.9	63.9	95	62.4	0	0	---	0.00	29.916 
05:25	63.9	63.9	63.9	95	62.4	0	0	---	0.00	29.918 
05:30	63.9	63.9	63.9	95	62.4	0	0	---	0.00	29.917 
05:35	63.9	63.9	63.9	95	62.4	0	0	---	0.00	29.917 
05:40	63.9	63.9	63.9	95	62.4	0	0	---	0.00	29.917 
05:45	64.0	64.0	64.0	95	62.5	0	0	---	0.00	29.917 
05:50	64.0	64.0	64.0	95	62.5	0	0	---	0.00	29.917 
05:55	64.2	64.2	64.2	95	62.7	0	0	---	0.00	29.916 
06:00	64.5	64.5	64.5	96	63.3	0	0	---	0.00	29.913 
06:05	64.8	64.8	64.8	96	63.6	0	1	0	0.00	29.913 
06:10	65.2	65.2	65.2	96	64.0	0	0	---	0.00	29.916 
06:15	65.3	65.3	65.3	96	64.1	0	1	0	0.00	29.916 
06:20	65.5	65.5	65.5	96	64.3	0	0	---	0.00	29.917 
06:25	65.5	65.5	65.5	95	64.0	0	0	---	0.00	29.915 
06:30	65.5	65.5	65.5	96	64.3	0	0	---	0.00	29.915 
06:35	65.6	65.6	65.6	95	64.1	0	0	---	0.00	29.914 
06:40	65.8	65.8	65.8	95	64.3	0	0	---	0.00	29.914 
06:45	66.0	66.0	66.0	95	64.5	0	1	0	0.00	29.904 
06:50	66.1	66.1	66.1	95	64.6	0	1	0	0.00	29.900 
06:55	66.4	66.4	66.4	94	64.6	0	0	---	0.00	29.903 
07:00	66.6	66.6	66.6	93	64.5	0	1	0	0.00	29.905 
07:05	67.1	67.1	67.1	92	64.7	0	0	---	0.00	29.908 
07:10	67.6	67.6	67.6	92	65.2	0	0	---	0.00	29.916 
07:15	68.3	68.3	68.3	90	65.2	0	1	0	0.00	29.917 
07:20	68.8	68.8	68.8	89	65.4	0	1	0	0.00	29.922 
07:25	69.8	69.8	69.8	88	66.1	0	1	0	0.00	29.927 
07:30	70.8	70.8	70.8	86	66.4	0	1	315	0.00	29.925 
07:35	71.6	71.6	71.6	82	65.8	0	1	315	0.00	29.928 
07:40	72.5	72.5	72.5	80	66.0	0	2	315	0.00	29.928 
07:45	73.3	73.3	73.3	77	65.6	0	3	248	0.00	29.936 
07:50	73.5	73.5	73.5	76	65.5	1	2	248	0.00	29.939 
07:55	73.3	73.3	73.3	75	64.9	1	2	248	0.00	29.941 
08:00	73.2	73.2	73.2	76	65.2	0	1	248	0.00	29.943 
08:05	73.2	73.2	73.2	77	65.5	0	1	248	0.00	29.944 
08:10	73.2	73.2	73.2	75	64.8	1	3	248	0.00	29.945 
08:15	73.2	73.2	73.2	75	64.8	0	2	248	0.00	29.946 
08:20	73.2	73.2	73.2	75	64.8	0	1	248	0.00	29.947 
08:25	73.0	73.0	73.0	74	64.2	1	3	248	0.00	29.948 
08:30	73.0	73.0	73.0	73	63.8	1	3	248	0.00	29.952 
08:35	73.0	73.0	73.0	74	64.2	1	3	248	0.00	29.954 
08:40	73.2	73.2	73.2	74	64.4	0	2	248	0.00	29.950 
08:45	73.3	73.3	73.3	74	64.5	0	2	248	0.00	29.954 
08:50	73.5	73.5	73.5	73	64.3	1	3	270	0.00	29.952 
08:55	73.9	73.9	73.9	72	64.3	1	3	292	0.00	29.952 
09:00	74.0	74.0	74.0	73	64.8	0	2	270	0.00	29.951 
09:05	74.4	74.4	74.4	72	64.8	0	1	270	0.00	29.951 
09:10	74.9	74.9	74.9	71	64.8	0	2	270	0.00	29.949 
09:15	75.6	75.6	77.3	69	64.7	1	4	270	0.00	29.947 
09:20	76.1	76.1	77.8	68	64.8	1	3	270	0.00	29.944 
09:25	76.5	76.5	78.3	67	64.7	1	3	248	0.00	29.946 
09:30	76.7	76.7	78.5	66	64.5	1	2	270	0.00	29.946 
09:35	76.7	76.7	78.5	66	64.5	1	4	270	0.00	29.944 
09:40	76.5	76.5	78.3	68	65.1	1	4	292	0.00	29.942 
09:45	76.5	76.5	78.3	68	65.1	2	9	248	0.00	29.940 
09:50	77.0	77.0	78.8	69	66.0	1	3	248	0.00	29.932 
09:55	77.6	77.6	79.5	67	65.8	1	3	248	0.00	29.929 
10:00	78.5	78.5	80.5	67	66.6	1	2	248	0.00	29.926 
10:05	79.0	79.0	81.0	65	66.2	1	4	248	0.00	29.930 
10:10	79.0	79.0	80.8	62	64.8	1	4	248	0.00	29.931 
10:15	78.6	78.6	80.5	64	65.4	0	3	248	0.00	29.928 
10:20	78.6	78.6	80.6	65	65.8	0	2	248	0.00	29.925 
10:25	79.0	79.0	81.2	67	67.1	1	2	248	0.00	29.925 
10:30	79.8	79.8	82.0	64	66.5	1	3	68	0.00	29.916 
10:35	80.1	80.1	82.2	62	65.9	1	4	90	0.00	29.915 
10:40	80.5	80.5	82.7	62	66.3	2	5	90	0.00	29.913 
10:45	80.7	80.7	83.1	63	66.9	2	5	90	0.00	29.911 
10:50	80.9	80.9	83.5	64	67.6	1	3	90	0.00	29.912 
10:55	81.4	81.4	83.9	62	67.1	1	3	90	0.00	29.911 
11:00	81.8	81.8	84.9	64	68.4	1	3	0	0.00	29.910 
11:05	82.2	82.2	84.9	61	67.4	1	3	248	0.00	29.914 
11:10	82.8	82.8	85.8	61	67.9	1	3	112	0.00	29.913 
11:15	83.0	83.0	86.1	61	68.1	1	3	292	0.00	29.911 
11:20	83.2	83.2	86.5	61	68.3	2	5	90	0.00	29.909 
11:25	83.0	83.0	86.1	61	68.1	2	6	135	0.00	29.904 
11:30	83.4	83.4	86.1	58	67.0	1	6	112	0.00	29.901 
11:35	83.6	83.6	86.4	58	67.2	1	5	112	0.00	29.898 
11:40	84.1	84.1	88.0	61	69.2	1	2	292	0.00	29.895 
11:45	84.5	84.5	88.1	59	68.6	1	4	248	0.00	29.895 
11:50	84.3	84.3	87.8	59	68.4	1	5	270	0.00	29.896 
11:55	84.5	84.5	87.8	58	68.1	2	4	248	0.00	29.895 
12:00	84.5	84.5	88.4	60	69.1	2	4	22	0.00	29.898 
12:05	84.9	84.9	88.8	59	68.9	1	4	248	0.00	29.895 
12:10	84.7	84.7	88.7	60	69.2	1	5	315	0.00	29.898 
12:15	84.0	84.0	87.5	60	68.6	2	4	112	0.00	29.899 
12:20	84.0	84.0	87.3	59	68.1	2	5	45	0.00	29.901 
12:25	84.3	84.3	87.8	59	68.4	2	5	90	0.00	29.901 
12:30	84.5	84.5	88.7	61	69.5	2	4	112	0.00	29.907 
12:35	85.1	85.1	88.8	58	68.6	1	3	112	0.00	29.908 
12:40	85.3	85.3	89.8	60	69.8	1	2	270	0.00	29.909 
12:45	85.5	85.5	89.5	58	69.0	1	5	270	0.00	29.909 
12:50	85.5	85.5	89.5	58	69.0	1	3	270	0.00	29.910 
12:55	85.5	85.5	88.9	56	68.0	1	4	270	0.00	29.909 
13:00	85.9	85.9	90.2	58	69.4	0	2	270	0.00	29.906 
13:05	85.9	85.9	89.6	56	68.3	1	4	248	0.00	29.910 
13:10	85.5	85.5	88.6	55	67.5	2	4	248	0.00	29.911 
13:15	84.9	84.9	87.9	56	67.4	1	3	248	0.00	29.912 
13:20	84.3	84.3	87.2	57	67.4	1	4	270	0.00	29.912 
13:25	84.1	84.1	87.2	58	67.7	1	5	225	0.00	29.913 
13:30	84.3	84.3	87.8	59	68.4	1	2	248	0.00	29.911 
13:35	85.1	85.1	88.8	58	68.6	1	3	248	0.00	29.907 
13:40	85.5	85.5	88.6	55	67.5	2	5	270	0.00	29.912 
13:45	85.7	85.7	89.2	56	68.2	2	5	270	0.00	29.908 
13:50	86.1	86.1	89.9	56	68.5	1	4	248	0.00	29.903 
13:55	86.3	86.3	90.6	57	69.2	1	4	292	0.00	29.898 
14:00	85.9	85.9	89.2	55	67.8	2	4	248	0.00	29.897 
14:05	85.7	85.7	88.9	55	67.6	2	4	270	0.00	29.900 
14:10	85.7	85.7	89.2	56	68.2	1	3	270	0.00	29.900 
14:15	85.9	85.9	89.2	55	67.8	1	4	248	0.00	29.898 
14:20	85.9	85.9	88.9	54	67.3	2	4	270	0.00	29.898 
14:25	85.9	85.9	89.2	55	67.8	1	3	270	0.00	29.896 
14:30	85.3	85.3	88.8	57	68.3	2	6	270	0.00	29.897 
14:35	84.7	84.7	87.9	57	67.7	1	3	270	0.00	29.897 
14:40	84.7	84.7	88.1	58	68.3	1	4	292	0.00	29.896 
14:45	85.1	85.1	89.1	59	69.1	1	4	270	0.00	29.896 
14:50	85.5	85.5	88.9	56	68.0	2	4	270	0.00	29.895 
14:55	85.9	85.9	89.9	57	68.9	1	3	270	0.00	29.891 
15:00	86.3	86.3	89.9	55	68.2	1	3	270	0.00	29.890 
15:05	86.5	86.5	90.3	55	68.4	2	5	292	0.00	29.888 
15:10	86.5	86.5	89.6	53	67.3	1	5	248	0.00	29.887 
15:15	86.5	86.5	89.6	53	67.3	1	4	248	0.00	29.882 
15:20	86.3	86.3	89.6	54	67.7	1	4	248	0.00	29.884 
15:25	86.1	86.1	89.2	54	67.5	2	5	248	0.00	29.882 
15:30	85.9	85.9	89.9	57	68.9	2	4	270	0.00	29.880 
15:35	85.9	85.9	88.9	54	67.3	1	6	270	0.00	29.879 
15:40	86.1	86.1	89.6	55	68.0	1	4	248	0.00	29.877 
15:45	85.9	85.9	88.3	52	66.2	2	5	270	0.00	29.878 
15:50	85.9	85.9	90.2	58	69.4	1	4	270	0.00	29.876 
15:55	86.1	86.1	88.9	53	66.9	1	4	248	0.00	29.869 
16:00	85.9	85.9	88.6	53	66.7	1	4	315	0.00	29.871 
16:05	85.7	85.7	87.7	51	65.5	2	4	270	0.00	29.868 
16:10	85.5	85.5	88.6	55	67.5	2	4	270	0.00	29.867 
16:15	85.7	85.7	88.3	53	66.6	2	7	248	0.00	29.866 
16:20	85.7	85.7	87.4	50	64.9	2	4	270	0.00	29.866 
16:25	85.9	85.9	88.9	54	67.3	1	4	270	0.00	29.865 
16:30	86.3	86.3	89.3	53	67.1	1	3	270	0.00	29.862 
16:35	86.3	86.3	89.3	53	67.1	1	5	270	0.00	29.862 
16:40	86.1	86.1	88.9	53	66.9	1	3	112	0.00	29.861 
16:45	85.9	85.9	88.9	54	67.3	1	5	292	0.00	29.856 
16:50	85.7	85.7	89.2	56	68.2	1	4	270	0.00	29.854 
16:55	85.9	85.9	88.9	54	67.3	1	4	270	0.00	29.854 
17:00	85.7	85.7	88.6	54	67.1	2	4	270	0.00	29.851 
17:05	85.1	85.1	87.7	54	66.6	2	4	270	0.00	29.850 
17:10	84.7	84.7	86.8	53	65.6	2	5	270	0.00	29.848 
17:15	84.3	84.3	86.5	54	65.8	1	4	270	0.00	29.847 
17:20	84.0	84.0	86.5	56	66.6	1	4	270	0.00	29.846 
17:25	84.0	84.0	86.7	57	67.1	1	5	112	0.00	29.842 
17:30	83.8	83.8	86.4	57	66.9	1	5	315	0.00	29.848 
17:35	83.6	83.6	86.1	57	66.7	1	6	315	0.00	29.851 
17:40	83.4	83.4	85.6	56	66.0	2	6	270	0.00	29.852 
17:45	83.2	83.2	85.6	57	66.4	2	6	270	0.00	29.853 
17:50	82.8	82.8	85.0	57	66.0	2	4	270	0.00	29.854 
17:55	82.6	82.6	84.9	58	66.3	1	3	270	0.00	29.855 
18:00	82.6	82.6	84.9	58	66.3	1	3	248	0.00	29.853 
18:05	82.6	82.6	84.7	57	65.8	1	5	248	0.00	29.851 
18:10	82.4	82.4	84.6	58	66.1	0	2	225	0.00	29.853 
18:15	82.4	82.4	84.8	59	66.6	1	6	225	0.00	29.852 
18:20	82.4	82.4	85.0	60	67.1	1	5	270	0.00	29.851 
18:25	82.2	82.2	84.7	60	66.9	1	4	270	0.00	29.851 
18:30	82.2	82.2	84.7	60	66.9	1	4	248	0.00	29.848 
18:35	82.2	82.2	84.7	60	66.9	2	4	270	0.00	29.847 
18:40	82.2	82.2	84.9	61	67.4	1	3	270	0.00	29.847 
18:45	82.2	82.2	84.9	61	67.4	1	6	270	0.00	29.844 
18:50	82.2	82.2	85.1	62	67.9	1	6	248	0.00	29.843 
18:55	82.0	82.0	84.8	62	67.7	0	2	248	0.00	29.843 
19:00	82.0	82.0	84.8	62	67.7	1	4	0	0.00	29.847 
19:05	82.0	82.0	84.8	62	67.7	1	4	315	0.00	29.846 
19:10	81.8	81.8	84.3	61	67.0	1	3	248	0.00	29.846 
19:15	81.8	81.8	84.5	62	67.5	0	2	248	0.00	29.844 
19:20	81.6	81.6	84.2	62	67.3	1	3	248	0.00	29.845 
19:25	81.2	81.2	83.8	63	67.4	1	3	248	0.00	29.847 
19:30	81.1	81.1	83.8	64	67.7	0	2	292	0.00	29.848 
19:35	80.7	80.7	83.2	64	67.4	0	2	270	0.00	29.847 
19:40	80.5	80.5	83.1	65	67.6	1	4	270	0.00	29.849 
19:45	80.5	80.5	83.1	65	67.6	1	3	315	0.00	29.849 
19:50	80.3	80.3	82.7	64	67.0	1	3	248	0.00	29.851 
19:55	80.3	80.3	82.7	64	67.0	0	1	248	0.00	29.855 
20:00	80.1	80.1	82.4	64	66.8	1	4	248	0.00	29.851 
20:05	80.1	80.1	82.4	64	66.8	0	2	248	0.00	29.847 
20:10	79.9	79.9	82.1	64	66.6	1	4	248	0.00	29.846 
20:15	79.8	79.8	82.0	64	66.5	1	6	248	0.00	29.848 
20:20	79.6	79.6	81.7	64	66.3	1	4	248	0.00	29.849 
20:25	79.4	79.4	81.5	64	66.1	1	3	270	0.00	29.850 
20:30	79.2	79.2	81.2	64	65.9	1	4	248	0.00	29.851 
20:35	79.0	79.0	81.0	65	66.2	1	3	248	0.00	29.850 
20:40	78.6	78.6	80.6	65	65.8	0	2	248	0.00	29.849 
20:45	78.5	78.5	80.5	66	66.2	0	2	248	0.00	29.852 
20:50	78.3	78.3	80.2	66	66.0	0	3	270	0.00	29.852 
20:55	78.1	78.1	80.0	67	66.2	1	3	248	0.00	29.856 
21:00	77.9	77.9	79.8	67	66.0	1	4	270	0.00	29.851 
21:05	77.7	77.7	79.6	68	66.3	0	2	270	0.00	29.848 
21:10	77.4	77.4	79.2	69	66.4	0	1	270	0.00	29.848 
21:15	77.2	77.2	79.0	69	66.2	0	2	270	0.00	29.848 
21:20	77.0	77.0	78.8	70	66.4	0	1	270	0.00	29.848 
21:25	76.8	76.8	78.5	71	66.7	0	2	270	0.00	29.849 
21:30	76.8	76.8	78.5	71	66.7	0	2	270	0.00	29.850 
21:35	76.7	76.7	78.4	71	66.6	0	2	270	0.00	29.851 
21:40	76.5	76.5	78.2	71	66.4	0	2	270	0.00	29.860 
21:45	76.3	76.3	77.9	72	66.6	0	1	270	0.00	29.862 
21:50	76.5	76.5	78.1	72	66.8	1	5	270	0.00	29.866 
21:55	76.5	76.5	78.1	72	66.8	1	2	248	0.00	29.864 
22:00	76.3	76.3	77.9	72	66.6	1	4	0	0.00	29.863 
22:05	76.3	76.3	77.8	73	67.0	0	2	0	0.00	29.862 
22:10	76.1	76.1	77.6	73	66.8	0	2	0	0.00	29.860 
22:15	75.8	75.8	77.3	73	66.5	0	2	0	0.00	29.863 
22:20	75.8	75.8	77.3	73	66.5	0	2	0	0.00	29.867 
22:25	75.6	75.6	77.0	73	66.3	1	3	248	0.00	29.865 
22:30	75.6	75.6	77.0	73	66.3	0	1	248	0.00	29.864 
22:35	75.8	75.8	77.3	73	66.5	1	2	248	0.00	29.869 
22:40	75.8	75.8	77.3	73	66.5	1	4	248	0.00	29.871 
22:45	76.0	76.0	77.5	72	66.3	1	2	248	0.00	29.868 
22:50	76.0	76.0	77.5	72	66.3	0	3	0	0.00	29.869 
22:55	76.0	76.0	77.5	72	66.3	0	2	270	0.00	29.865 
23:00	75.8	75.8	77.3	73	66.5	0	3	270	0.00	29.863 
23:05	75.8	75.8	77.3	73	66.5	0	2	248	0.00	29.861 
23:10	75.8	75.8	77.3	73	66.5	0	1	248	0.00	29.863 
23:15	75.6	75.6	77.0	73	66.3	1	5	225	0.00	29.859 
23:20	75.4	75.4	76.8	73	66.1	0	2	68	0.00	29.860 
23:25	75.3	75.3	76.6	74	66.4	0	1	68	0.00	29.862 
23:30	75.1	75.1	76.4	74	66.2	0	3	248	0.00	29.859 
23:35	75.1	75.1	76.3	75	66.6	0	2	270	0.00	29.859 
23:40	74.9	74.9	74.9	75	66.4	0	1	270	0.00	29.857 
23:45	74.7	74.7	74.7	76	66.6	0	1	270	0.00	29.857 
23:50	74.6	74.6	74.6	76	66.5	0	3	248	0.00	29.858 
23:55	74.6	74.6	74.6	77	66.9	0	2	248	0.00	29.858 

CoCoRaHS
IN-AL-39
A2 Web Hosting
Creative Commons License
GoDaddy
Look for:

loaded 2017-10-19 19:55:45 • last modified 2010-11-18 10:43:29
Privacy PolicyDisclaimer
• wx.awcolley.com is powered by PmWiki v.2002016 •
• all content (unless otherwise noted) © 2017 A W Colley